Wetterstation-Oberesslingen
Wetterdaten: aktuell Montag, 18.11.2019 14:25
Datum Zeit Temperatur BodenT. -10 Temp+5cm Luftfeuchte Bod.Feuchte Luftdruck Regen Wind Richtung Richtung Sonnenschein ET Solar Taupunkt Windchill Windben
18.11.2019 14:25 7,2 C 6,1 C 6,7 C 68 % 23 cb 1011,0 hPa 0,0 l/m 7,6 km/h (2 Bft) W-SW 247 40 min 0,102 mm 304 W/m 1,7 C 5,8 C 14,5 km/h (3 Bft)
18.11.2019 13:25 7,3 C 6,1 C 8,3 C 69 % 23 cb 1010,4 hPa 0,0 l/m 6,0 km/h (2 Bft) W 270 35 min 0,203 mm 185 W/m 2,0 C 6,4 C 12,9 km/h (3 Bft)
18.11.2019 12:25 7,3 C 6,1 C 7,2 C 69 % 23 cb 1009,9 hPa 0,0 l/m 9,2 km/h (2 Bft) W-SW 247 60 min 0,178 mm 439 W/m 2,0 C 5,6 C 22,5 km/h (4 Bft)
18.11.2019 11:25 7,0 C 6,1 C 9,4 C 74 % 23 cb 1009,8 hPa 0,0 l/m 7,6 km/h (2 Bft) SW 225 60 min 0,152 mm 332 W/m 2,7 C 5,6 C 16,1 km/h (3 Bft)
18.11.2019 10:25 6,1 C 6,1 C 6,1 C 76 % 23 cb 1009,4 hPa 0,0 l/m 6,0 km/h (2 Bft) W-SW 247 60 min 0,076 mm 418 W/m 2,2 C 5,0 C 16,1 km/h (3 Bft)
18.11.2019 09:25 3,8 C 6,1 C 2,8 C 90 % 23 cb 1008,8 hPa 0,0 l/m 4,3 km/h (1 Bft) SO 135 55 min 0,025 mm 193 W/m 2,3 C 3,8 C 6,4 km/h (2 Bft)
18.11.2019 08:25 2,3 C 6,1 C 0,6 C 97 % 23 cb 1008,3 hPa 0,0 l/m 1,1 km/h (1 Bft) N 0 5 min 0,000 mm 25 W/m 1,9 C 2,3 C 0,0 km/h (0 Bft)
18.11.2019 07:25 2,6 C 6,1 C -0,6 C 97 % 23 cb 1007,7 hPa 0,0 l/m 1,1 km/h (1 Bft) N 0 0 min 0,000 mm 0 W/m 2,2 C 2,6 C 0,0 km/h (0 Bft)
18.11.2019 06:25 3,2 C 6,1 C 2,8 C 96 % 23 cb 1007,1 hPa 0,0 l/m 1,1 km/h (1 Bft) N 0 0 min 0,000 mm 0 W/m 2,6 C 3,2 C 0,0 km/h (0 Bft)
18.11.2019 05:25 3,2 C 6,1 C 2,8 C 96 % 23 cb 1006,7 hPa 0,0 l/m 1,1 km/h (1 Bft) N 0 0 min 0,000 mm 0 W/m 2,6 C 3,2 C 0,0 km/h (0 Bft)
18.11.2019 04:25 2,9 C 6,1 C 2,2 C 96 % 23 cb 1006,5 hPa 0,2 l/m 1,1 km/h (1 Bft) N 0 0 min 0,000 mm 0 W/m 2,3 C 2,9 C 0,0 km/h (0 Bft)
18.11.2019 03:25 2,4 C 6,7 C 0,0 C 96 % 23 cb 1006,0 hPa 0,0 l/m 1,1 km/h (1 Bft) N 0 0 min 0,000 mm 0 W/m 1,8 C 2,4 C 0,0 km/h (0 Bft)
18.11.2019 02:25 3,6 C 6,7 C 3,3 C 95 % 23 cb 1005,9 hPa 0,0 l/m 1,1 km/h (1 Bft) N 0 0 min 0,000 mm 0 W/m 2,9 C 3,6 C 0,0 km/h (0 Bft)
18.11.2019 01:25 3,3 C 6,7 C 2,8 C 95 % 23 cb 1005,9 hPa 0,0 l/m 1,1 km/h (1 Bft) N 0 0 min 0,000 mm 0 W/m 2,6 C 3,3 C 0,0 km/h (0 Bft)
18.11.2019 00:25 3,3 C 6,7 C 2,8 C 94 % 23 cb 1005,8 hPa 0,0 l/m 1,1 km/h (1 Bft) N 0 0 min 0,000 mm 0 W/m 2,4 C 3,3 C 0,0 km/h (0 Bft)
17.11.2019 23:25 3,2 C 6,7 C 0,6 C 95 % 23 cb 1005,1 hPa 0,0 l/m 2,7 km/h (1 Bft) O-SO 112 0 min 0,000 mm 0 W/m 2,5 C 3,2 C 4,8 km/h (1 Bft)
17.11.2019 22:25 4,2 C 6,7 C 2,8 C 93 % 23 cb 1005,0 hPa 0,0 l/m 4,3 km/h (1 Bft) SO 135 0 min 0,000 mm 0 W/m 3,2 C 4,2 C 8,0 km/h (2 Bft)
17.11.2019 21:25 4,4 C 6,7 C 3,9 C 95 % 23 cb 1004,9 hPa 0,0 l/m 2,7 km/h (1 Bft) S-SO 157 0 min 0,000 mm 0 W/m 3,7 C 4,4 C 4,8 km/h (1 Bft)
17.11.2019 20:25 4,4 C 6,7 C 3,9 C 96 % 23 cb 1004,7 hPa 0,0 l/m 1,1 km/h (1 Bft) N 0 0 min 0,000 mm 0 W/m 3,8 C 4,4 C 0,0 km/h (0 Bft)
17.11.2019 19:25 4,4 C 6,7 C 4,4 C 97 % 23 cb 1004,6 hPa 0,0 l/m 1,1 km/h (1 Bft) N 0 0 min 0,000 mm 0 W/m 4,0 C 4,4 C 0,0 km/h (0 Bft)
17.11.2019 18:25 4,3 C 6,7 C 4,4 C 97 % 23 cb 1004,2 hPa 0,2 l/m 1,1 km/h (1 Bft) N 0 0 min 0,000 mm 0 W/m 3,9 C 4,3 C 0,0 km/h (0 Bft)
17.11.2019 17:25 4,3 C 6,7 C 3,9 C 97 % 23 cb 1004,0 hPa 0,0 l/m 1,1 km/h (1 Bft) W 270 0 min 0,000 mm 0 W/m 3,9 C 4,3 C 3,2 km/h (1 Bft)
17.11.2019 16:25 4,3 C 6,7 C 4,4 C 96 % 23 cb 1003,7 hPa 0,0 l/m 1,1 km/h (1 Bft) W-NW 292 0 min 0,000 mm 0 W/m 3,7 C 4,3 C 3,2 km/h (1 Bft)
17.11.2019 15:25 4,2 C 6,1 C 3,9 C 96 % 23 cb 1004,1 hPa 0,0 l/m 2,7 km/h (1 Bft) W-NW 292 0 min 0,000 mm 11 W/m 3,6 C 4,2 C 4,8 km/h (1 Bft)
17.11.2019 15:00 4,2 C 6,1 C 4,4 C 96 % 23 cb 1004,2 hPa 0,0 l/m 4,3 km/h (1 Bft) W-NW 292 0 min 0,000 mm 14 W/m 3,6 C 4,2 C 9,7 km/h (2 Bft)
_ Min-Zeit 07:40 15:00 07:35 12:30 15:00 16:55 - 15:35 - - - - - 13:40 07:40 15:50
Minimum _ 2,2 C 6,1 C -1,1 C 67 % 23 cb 1003,5 hPa - 1,1 km/h (1 Bft) - - - - - 1,4 C 2,2 C 0,0 km/h (0 Bft)
_ Max-Zeit 13:05 15:50 11:15 15:30 15:00 14:25 17:30 11:00 - - 07:50 13:00 11:40 16:35 13:05 11:00
Maximum _ 7,9 C 6,7 C 10,0 C 97 % 23 cb 1011,0 hPa 0,2 l/m 10,8 km/h
W-SW (2 Bft)
- - 5 min 0,203 mm 508 W/m 4,0 C 6,9 C 25,7 km/h
S (4 Bft)
Durchschnitt _ 4,2 C 6,4 C 3,8 C 91 % 23 cb 1006,4 hPa #0,4 l/m 2,8 km/h (1 Bft) N - #5:15 h #0,736 mm 273 W/m 2,8 C 4,0 C 4,9 km/h (1 Bft)